createdAt,value
2018-11-14T00:17:47.442Z,51.68
2018-11-14T00:20:16.818Z,52.73
2018-11-14T00:22:47.315Z,49.33
2018-11-14T00:25:16.680Z,51.48
2018-11-14T00:27:46.380Z,49.38
2018-11-14T00:30:20.079Z,49.98
2018-11-14T00:32:49.851Z,51.37
2018-11-14T00:35:19.742Z,51.28
2018-11-14T00:55:13.773Z,52.45
2018-11-14T00:57:44.892Z,50.43
2018-11-14T01:00:22.733Z,50.00
2018-11-14T01:02:52.520Z,51.08
2018-11-14T01:05:22.036Z,54.40
2018-11-14T01:07:51.733Z,56.08
2018-11-14T01:10:22.257Z,52.50
2018-11-14T01:12:52.318Z,52.80
2018-11-14T01:15:22.850Z,51.77
2018-11-14T01:17:52.530Z,48.02
2018-11-14T01:20:22.883Z,51.37
2018-11-14T01:22:52.500Z,47.55
2018-11-14T01:25:22.268Z,48.33
2018-11-14T01:27:51.871Z,48.38
2018-11-14T01:30:22.710Z,50.33
2018-11-14T01:32:52.920Z,49.30
2018-11-14T01:35:22.954Z,49.53
2018-11-14T01:37:52.706Z,49.53
2018-11-14T01:40:24.467Z,44.13
2018-11-14T01:42:55.365Z,47.27
2018-11-14T01:45:24.919Z,45.25
2018-11-14T01:47:54.861Z,46.68
2018-11-14T01:50:24.469Z,45.85
2018-11-14T01:52:54.273Z,46.37
2018-11-14T02:12:46.754Z,44.45
2018-11-14T02:15:18.925Z,43.02
2018-11-14T02:17:48.629Z,47.38
2018-11-14T02:20:18.055Z,44.15
2018-11-14T02:40:11.674Z,41.53
2018-11-14T03:00:03.406Z,40.70
2018-11-14T03:02:32.881Z,41.23
2018-11-14T03:05:02.530Z,38.98
2018-11-14T03:07:32.301Z,40.85
2018-11-14T03:10:02.225Z,41.48
2018-11-14T03:29:53.993Z,40.20
2018-11-14T03:32:24.125Z,42.17
2018-11-14T03:34:53.889Z,42.75
2018-11-14T03:37:23.699Z,41.70
2018-11-14T03:39:53.271Z,43.17
2018-11-14T03:59:44.347Z,37.70
2018-11-14T04:02:14.026Z,38.75
2018-11-14T04:04:43.459Z,39.27
2018-11-14T04:07:12.915Z,39.75
2018-11-14T04:09:42.505Z,38.85
2018-11-14T04:12:11.912Z,38.85
2018-11-14T04:14:42.008Z,39.80
2018-11-14T04:17:11.697Z,41.00
2018-11-14T04:19:41.208Z,42.50
2018-11-14T04:22:11.065Z,54.27
2018-11-14T04:24:40.548Z,68.20
2018-11-14T04:27:10.026Z,83.10
2018-11-14T04:47:01.275Z,84.70
2018-11-14T04:49:30.890Z,87.33
2018-11-14T04:52:00.840Z,89.67
2018-11-14T04:54:30.554Z,97.37
2018-11-14T04:57:00.279Z,102.97
2018-11-14T04:59:30.080Z,81.78
2018-11-14T05:01:59.594Z,64.10
2018-11-14T05:04:29.561Z,52.15
2018-11-14T05:06:59.006Z,66.53
2018-11-14T05:09:28.892Z,56.25
2018-11-14T05:11:58.550Z,56.55
2018-11-14T05:14:28.373Z,46.85
2018-11-14T05:16:57.907Z,41.28
2018-11-14T05:19:27.529Z,42.23
2018-11-14T05:21:57.327Z,40.98
2018-11-14T05:41:49.375Z,58.70
2018-11-14T05:44:19.353Z,71.47
2018-11-14T05:46:48.857Z,82.25
2018-11-14T05:49:18.431Z,116.03
2018-11-14T06:09:12.493Z,172.13
2018-11-14T06:11:42.191Z,176.95
2018-11-14T06:14:11.865Z,237.80
2018-11-14T06:16:41.767Z,318.35
2018-11-14T06:19:11.401Z,218.15
2018-11-14T06:21:41.478Z,167.70
2018-11-14T06:24:11.100Z,154.75
2018-11-14T06:26:41.131Z,146.72
2018-11-14T06:29:10.523Z,151.05
2018-11-14T06:31:39.933Z,149.07
2018-11-14T06:51:31.521Z,142.77
2018-11-14T06:54:01.078Z,142.45
2018-11-14T06:56:30.764Z,147.22
2018-11-14T06:59:00.510Z,185.45
2018-11-14T07:01:30.228Z,211.65
2018-11-14T07:03:59.927Z,148.15
2018-11-14T07:06:30.733Z,139.32
2018-11-14T07:09:00.557Z,137.18
2018-11-14T07:11:30.097Z,135.52
2018-11-14T07:13:59.973Z,129.40
2018-11-14T07:16:29.803Z,124.87
2018-11-14T07:18:59.495Z,114.30
2018-11-14T07:21:29.322Z,85.05
2018-11-14T07:23:59.225Z,76.80
2018-11-14T07:43:51.889Z,96.82
2018-11-14T07:46:21.730Z,212.88
2018-11-14T07:48:52.270Z,128.65
2018-11-14T07:51:21.947Z,118.40
2018-11-14T08:11:13.705Z,57.70
2018-11-14T08:13:44.727Z,55.10
2018-11-14T08:16:14.621Z,55.48
2018-11-14T08:18:44.483Z,55.45
2018-11-14T08:21:13.982Z,54.95
2018-11-14T08:23:43.697Z,59.10
2018-11-14T08:26:13.366Z,59.25
2018-11-14T08:28:43.314Z,59.80
2018-11-14T08:31:13.198Z,61.37
2018-11-14T08:33:42.870Z,63.20
2018-11-14T08:36:12.617Z,65.10
2018-11-14T08:38:42.281Z,64.50
2018-11-14T08:41:12.219Z,63.92
2018-11-14T08:43:41.750Z,64.70
2018-11-14T08:46:11.312Z,67.87
2018-11-14T08:48:41.088Z,68.25
2018-11-14T08:51:10.801Z,69.80
2018-11-14T09:11:03.210Z,62.17
2018-11-14T09:13:33.058Z,61.45
2018-11-14T09:16:03.107Z,60.75
2018-11-14T09:18:32.726Z,57.95
2018-11-14T09:21:02.350Z,59.45
2018-11-14T09:23:31.816Z,58.25
2018-11-14T09:26:01.433Z,53.10
2018-11-14T09:45:53.938Z,49.85
2018-11-14T09:48:23.671Z,49.42
2018-11-14T09:50:53.555Z,47.50
2018-11-14T09:53:23.111Z,43.05
2018-11-14T09:55:52.918Z,42.17
2018-11-14T09:58:22.459Z,39.63
2018-11-14T10:00:52.170Z,41.18
2018-11-14T10:03:21.707Z,39.50
2018-11-14T10:05:51.272Z,38.95
2018-11-14T10:08:21.290Z,39.23
2018-11-14T10:10:50.979Z,39.50
2018-11-14T10:13:20.698Z,38.70
2018-11-14T10:15:50.848Z,39.50
2018-11-14T10:18:20.663Z,38.67
2018-11-14T10:20:50.420Z,38.90
2018-11-14T10:40:43.325Z,38.25
2018-11-14T10:43:13.189Z,41.20
2018-11-14T10:45:42.827Z,40.48
2018-11-14T10:48:12.439Z,42.27
2018-11-14T10:50:42.185Z,41.40
2018-11-14T10:53:11.768Z,58.45
2018-11-14T10:55:41.562Z,44.15
2018-11-14T10:58:11.354Z,43.05
2018-11-14T11:32:32.829Z,47.43
2018-11-14T11:35:02.591Z,48.25
2018-11-14T11:37:32.257Z,46.73
2018-11-14T11:40:02.027Z,48.52
2018-11-14T11:42:31.805Z,50.50
2018-11-14T11:45:01.669Z,51.63
2018-11-14T11:47:31.685Z,49.80
2018-11-14T11:50:01.473Z,51.15
2018-11-14T11:52:31.008Z,53.90
2018-11-14T11:55:00.684Z,52.08
2018-11-14T11:57:30.153Z,53.98
2018-11-14T12:00:00.339Z,57.10
2018-11-14T12:02:30.078Z,52.13
2018-11-14T12:22:22.061Z,52.80
2018-11-14T12:24:51.745Z,51.65
2018-11-14T12:27:21.426Z,52.45
2018-11-14T12:29:51.029Z,51.20
2018-11-14T12:49:43.488Z,57.90
2018-11-14T12:52:13.766Z,56.08
2018-11-14T12:54:43.418Z,57.13
2018-11-14T12:57:13.228Z,56.35
2018-11-14T12:59:43.041Z,58.85
2018-11-14T13:02:12.804Z,57.20
2018-11-14T13:04:42.218Z,54.80
2018-11-14T13:07:11.817Z,57.73
2018-11-14T13:09:41.702Z,61.20
2018-11-14T13:12:11.450Z,57.75
2018-11-14T13:14:41.175Z,58.10
2018-11-14T13:17:10.855Z,54.25
2018-11-14T13:19:40.454Z,56.42
2018-11-14T13:22:09.974Z,57.43
2018-11-14T13:24:39.689Z,58.85
2018-11-14T13:27:09.182Z,58.92
2018-11-14T13:29:38.870Z,58.87
2018-11-14T13:32:08.803Z,59.23
2018-11-14T13:34:38.767Z,58.13
2018-11-14T13:37:08.496Z,55.40
2018-11-14T13:39:38.257Z,58.50
2018-11-14T13:42:07.795Z,60.50
2018-11-14T13:44:37.501Z,64.53
2018-11-14T13:47:07.590Z,58.02
2018-11-14T13:49:37.424Z,62.13
2018-11-14T13:52:06.882Z,58.28
2018-11-14T13:54:36.399Z,57.45
2018-11-14T13:57:06.003Z,60.17
2018-11-14T13:59:35.982Z,59.83
2018-11-14T14:02:05.985Z,60.10
2018-11-14T14:04:35.555Z,58.65
2018-11-14T14:24:27.456Z,56.55
2018-11-14T14:44:18.949Z,53.87
2018-11-14T14:46:49.072Z,57.17
2018-11-14T15:06:40.958Z,53.70
2018-11-14T15:09:11.196Z,50.00
2018-11-14T15:11:40.975Z,49.45
2018-11-14T15:14:10.849Z,44.58
2018-11-14T15:34:02.960Z,46.37
2018-11-14T15:36:32.819Z,46.15
2018-11-14T15:39:02.710Z,46.98
2018-11-14T15:53:07.514Z,45.85
2018-11-14T15:55:37.207Z,44.53
2018-11-14T15:58:07.598Z,45.63
2018-11-14T16:00:37.494Z,42.03
2018-11-14T16:03:07.308Z,44.18
2018-11-14T16:05:37.155Z,41.60
2018-11-14T16:08:06.855Z,43.80
2018-11-14T16:10:36.625Z,41.73
2018-11-14T16:13:06.354Z,37.88
2018-11-14T16:15:37.159Z,39.23
2018-11-14T16:18:06.952Z,39.18
2018-11-14T16:20:36.786Z,39.38
2018-11-14T16:23:06.408Z,39.80
2018-11-14T16:25:36.081Z,31.60
2018-11-14T16:28:06.089Z,37.53
2018-11-14T16:30:36.977Z,45.85
2018-11-14T16:33:07.668Z,41.05
2018-11-14T16:35:38.167Z,38.63
2018-11-14T16:38:08.253Z,40.45
2018-11-14T16:40:37.738Z,89.28
2018-11-14T16:43:08.497Z,38.17
2018-11-14T16:45:38.339Z,36.30
2018-11-14T16:48:07.885Z,31.15
2018-11-14T16:50:38.010Z,35.50
2018-11-14T16:53:07.819Z,34.25
2018-11-14T16:55:37.708Z,33.25
2018-11-14T16:58:07.245Z,70.28
2018-11-14T17:00:37.011Z,36.60
2018-11-14T17:03:06.487Z,41.83
2018-11-14T17:05:35.923Z,33.40
2018-11-14T17:08:05.918Z,32.58
2018-11-14T17:10:35.767Z,32.60
2018-11-14T17:13:05.733Z,31.07
2018-11-14T17:15:35.598Z,28.00
2018-11-14T17:18:05.180Z,31.35
2018-11-14T17:20:34.916Z,30.70
2018-11-14T17:23:04.675Z,28.57
2018-11-14T17:25:34.460Z,31.30
2018-11-14T17:28:04.470Z,29.92
2018-11-14T17:30:34.206Z,30.82
2018-11-14T17:33:03.980Z,28.70
2018-11-14T17:35:33.684Z,28.57
2018-11-14T17:38:03.390Z,28.95
2018-11-14T17:40:33.099Z,29.07
2018-11-14T17:43:02.960Z,28.95
2018-11-14T17:45:32.897Z,84.72
2018-11-14T17:48:02.522Z,28.25
2018-11-14T17:50:33.908Z,27.85
2018-11-14T17:53:04.294Z,28.55
2018-11-14T17:55:34.128Z,33.23
2018-11-14T17:58:04.042Z,33.10
2018-11-14T18:00:33.928Z,29.10
2018-11-14T18:03:04.084Z,28.65
2018-11-14T18:05:33.653Z,34.65
2018-11-14T18:08:06.073Z,30.12
2018-11-14T18:10:36.269Z,75.75
2018-11-14T18:13:05.901Z,41.98
2018-11-14T18:15:35.661Z,32.63
2018-11-14T18:18:05.233Z,31.68
2018-11-14T18:20:35.129Z,30.45
2018-11-14T18:23:04.910Z,29.77
2018-11-14T18:25:34.927Z,31.33
2018-11-14T18:28:05.247Z,29.70
2018-11-14T18:30:35.151Z,32.08
2018-11-14T18:33:04.890Z,30.88
2018-11-14T18:35:34.897Z,31.75
2018-11-14T18:38:04.368Z,29.80
2018-11-14T18:40:35.230Z,28.25
2018-11-14T18:43:05.286Z,29.15
2018-11-14T18:45:36.027Z,29.18
2018-11-14T18:48:06.313Z,29.15
2018-11-14T18:50:36.120Z,28.90
2018-11-14T18:53:05.760Z,30.12
2018-11-14T18:55:36.008Z,30.17
2018-11-14T18:58:06.647Z,29.80
2018-11-14T19:00:36.734Z,29.42
2018-11-14T19:03:06.491Z,30.17
2018-11-14T19:05:36.092Z,31.57
2018-11-14T19:08:06.100Z,31.27
2018-11-14T19:10:36.063Z,31.25
2018-11-14T19:13:05.886Z,31.50
2018-11-14T19:15:37.188Z,29.98
2018-11-14T19:18:07.153Z,88.87
2018-11-14T19:20:37.057Z,49.33
2018-11-14T19:23:07.073Z,28.75
2018-11-14T19:25:37.813Z,27.85
2018-11-14T19:28:07.745Z,26.33
2018-11-14T19:30:38.134Z,28.73
2018-11-14T19:33:08.082Z,28.07
2018-11-14T19:35:37.586Z,30.10
2018-11-14T19:38:07.509Z,29.85
2018-11-14T19:40:37.769Z,28.57
2018-11-14T19:43:09.157Z,29.45
2018-11-14T19:45:39.658Z,29.18
2018-11-14T19:48:09.479Z,27.85
2018-11-14T19:50:39.236Z,29.32
2018-11-14T19:53:08.929Z,29.85
2018-11-14T19:55:38.617Z,30.88
2018-11-14T19:58:08.315Z,89.17
2018-11-14T20:00:39.447Z,30.05
2018-11-14T20:03:09.667Z,30.00
2018-11-14T20:05:39.344Z,29.20
2018-11-14T20:08:08.949Z,28.60
2018-11-14T20:10:38.443Z,26.95
2018-11-14T20:13:08.112Z,27.20
2018-11-14T20:15:38.423Z,27.98
2018-11-14T20:18:08.401Z,29.70
2018-11-14T20:20:39.601Z,27.32
2018-11-14T20:23:09.309Z,28.02
2018-11-14T20:25:39.061Z,29.92
2018-11-14T20:28:08.697Z,26.40
2018-11-14T20:30:39.499Z,28.57
2018-11-14T20:33:11.574Z,29.30
2018-11-14T20:35:41.324Z,30.57
2018-11-14T20:38:11.165Z,29.15
2018-11-14T20:40:42.037Z,27.40
2018-11-14T20:43:12.173Z,31.35
2018-11-14T20:45:41.647Z,27.82
2018-11-14T20:48:11.369Z,30.85
2018-11-14T20:50:41.042Z,30.57
2018-11-14T20:53:11.091Z,29.63
2018-11-14T20:55:40.794Z,31.37
2018-11-14T20:58:10.237Z,29.45
2018-11-14T21:00:40.087Z,39.27
2018-11-14T21:03:09.965Z,29.77
2018-11-14T21:05:39.583Z,29.72
2018-11-14T21:08:09.104Z,31.05
2018-11-14T21:10:38.800Z,30.15
2018-11-14T21:13:08.566Z,30.35
2018-11-14T21:15:39.349Z,30.57
2018-11-14T21:18:09.335Z,30.30
2018-11-14T21:20:39.129Z,30.77
2018-11-14T21:23:08.671Z,31.00
2018-11-14T21:25:38.057Z,31.40
2018-11-14T21:28:07.574Z,32.30
2018-11-14T21:30:37.109Z,28.35
2018-11-14T21:33:07.301Z,30.97
2018-11-14T21:35:37.755Z,30.68
2018-11-14T21:38:08.739Z,31.77
2018-11-14T21:40:38.123Z,30.57
2018-11-14T21:43:07.723Z,30.48
2018-11-14T21:45:37.386Z,31.07
2018-11-14T21:48:16.382Z,31.93
2018-11-14T21:50:46.673Z,31.17
2018-11-14T21:53:16.138Z,31.97
2018-11-14T21:55:45.991Z,30.02
2018-11-14T21:58:15.549Z,31.97
2018-11-14T22:00:45.249Z,31.25
2018-11-14T22:03:14.657Z,33.33
2018-11-14T22:05:44.291Z,32.17
2018-11-14T22:08:14.051Z,31.55
2018-11-14T22:10:43.640Z,31.95
2018-11-14T22:13:13.358Z,31.45
2018-11-14T22:15:43.210Z,30.35
2018-11-14T22:18:12.947Z,31.57
2018-11-14T22:20:42.734Z,31.42
2018-11-14T22:23:12.461Z,32.05
2018-11-14T22:25:42.141Z,31.30
2018-11-14T22:28:12.040Z,33.25
2018-11-14T22:30:41.771Z,32.00
2018-11-14T22:33:11.513Z,32.45
2018-11-14T22:35:41.415Z,33.00
2018-11-14T22:38:11.257Z,33.15
2018-11-14T22:40:40.686Z,32.48
2018-11-14T22:43:10.457Z,34.78
2018-11-14T22:45:40.165Z,33.15
2018-11-14T22:48:09.849Z,33.30
2018-11-14T22:50:39.457Z,32.40
2018-11-14T22:53:08.937Z,31.95
2018-11-14T22:55:38.601Z,34.55
2018-11-14T22:58:08.487Z,32.45
2018-11-14T23:00:43.181Z,33.15
2018-11-14T23:03:12.682Z,33.63
2018-11-14T23:05:42.162Z,33.73
2018-11-14T23:08:12.081Z,75.30
2018-11-14T23:10:41.713Z,37.23
2018-11-14T23:13:11.583Z,35.35
2018-11-14T23:15:41.409Z,35.60
2018-11-14T23:18:10.840Z,36.42
2018-11-14T23:20:40.485Z,35.33
2018-11-14T23:23:10.253Z,35.70
2018-11-14T23:25:39.911Z,35.70
2018-11-14T23:28:09.629Z,34.05
2018-11-14T23:30:39.231Z,34.63
2018-11-14T23:33:09.213Z,35.20
2018-11-14T23:35:38.871Z,37.58
2018-11-14T23:38:08.587Z,36.05
2018-11-14T23:40:38.165Z,35.13
2018-11-14T23:43:07.884Z,35.30
2018-11-14T23:45:37.461Z,36.65
2018-11-14T23:48:07.413Z,35.80
2018-11-14T23:50:37.025Z,36.55
2018-11-14T23:53:06.926Z,36.85
2018-11-14T23:55:36.541Z,34.30
2018-11-14T23:58:06.698Z,35.92
